sensor_id;sensor_type;location;lat;lon;timestamp;P1;durP1;ratioP1;P2;durP2;ratioP2
77332;SDS011;66408;51.326;12.070;2023-07-20T00:01:18;3.22;;;2.25;;
77332;SDS011;66408;51.326;12.070;2023-07-20T00:03:47;3.45;;;2.53;;
77332;SDS011;66408;51.326;12.070;2023-07-20T00:06:22;5.25;;;2.58;;
77332;SDS011;66408;51.326;12.070;2023-07-20T00:08:51;3.33;;;2.47;;
77332;SDS011;66408;51.326;12.070;2023-07-20T00:11:21;4.07;;;2.30;;
77332;SDS011;66408;51.326;12.070;2023-07-20T00:13:55;4.05;;;2.83;;
77332;SDS011;66408;51.326;12.070;2023-07-20T00:16:27;3.10;;;2.35;;
77332;SDS011;66408;51.326;12.070;2023-07-20T00:18:55;5.13;;;2.60;;
77332;SDS011;66408;51.326;12.070;2023-07-20T00:21:24;4.38;;;3.03;;
77332;SDS011;66408;51.326;12.070;2023-07-20T00:23:52;4.00;;;2.78;;
77332;SDS011;66408;51.326;12.070;2023-07-20T00:28:49;3.85;;;2.88;;
77332;SDS011;66408;51.326;12.070;2023-07-20T00:31:18;5.30;;;2.80;;
77332;SDS011;66408;51.326;12.070;2023-07-20T00:33:50;4.03;;;3.10;;
77332;SDS011;66408;51.326;12.070;2023-07-20T00:36:18;3.55;;;2.47;;
77332;SDS011;66408;51.326;12.070;2023-07-20T00:38:47;4.72;;;2.58;;
77332;SDS011;66408;51.326;12.070;2023-07-20T00:41:16;3.53;;;2.20;;
77332;SDS011;66408;51.326;12.070;2023-07-20T00:46:12;3.58;;;2.30;;
77332;SDS011;66408;51.326;12.070;2023-07-20T00:48:41;4.63;;;2.72;;
77332;SDS011;66408;51.326;12.070;2023-07-20T00:51:10;4.65;;;2.72;;
77332;SDS011;66408;51.326;12.070;2023-07-20T00:53:39;4.63;;;2.13;;
77332;SDS011;66408;51.326;12.070;2023-07-20T00:56:07;5.15;;;2.17;;
77332;SDS011;66408;51.326;12.070;2023-07-20T00:58:36;3.00;;;1.70;;
77332;SDS011;66408;51.326;12.070;2023-07-20T01:01:05;3.42;;;2.00;;
77332;SDS011;66408;51.326;12.070;2023-07-20T01:03:39;3.03;;;1.75;;
77332;SDS011;66408;51.326;12.070;2023-07-20T01:09:01;2.45;;;1.70;;
77332;SDS011;66408;51.326;12.070;2023-07-20T01:14:17;4.60;;;1.65;;
77332;SDS011;66408;51.326;12.070;2023-07-20T01:16:46;2.47;;;1.73;;
77332;SDS011;66408;51.326;12.070;2023-07-20T01:19:17;3.53;;;2.13;;
77332;SDS011;66408;51.326;12.070;2023-07-20T01:21:49;4.28;;;1.88;;
77332;SDS011;66408;51.326;12.070;2023-07-20T01:30:23;2.33;;;1.60;;
77332;SDS011;66408;51.326;12.070;2023-07-20T01:32:54;3.63;;;2.13;;
77332;SDS011;66408;51.326;12.070;2023-07-20T01:35:27;4.70;;;1.92;;
77332;SDS011;66408;51.326;12.070;2023-07-20T01:37:57;6.30;;;2.00;;
77332;SDS011;66408;51.326;12.070;2023-07-20T01:40:27;3.42;;;2.00;;
77332;SDS011;66408;51.326;12.070;2023-07-20T01:42:56;3.38;;;2.10;;
77332;SDS011;66408;51.326;12.070;2023-07-20T01:45:24;3.90;;;1.80;;
77332;SDS011;66408;51.326;12.070;2023-07-20T01:47:53;4.65;;;2.22;;
77332;SDS011;66408;51.326;12.070;2023-07-20T01:50:22;3.05;;;2.20;;
77332;SDS011;66408;51.326;12.070;2023-07-20T01:52:50;3.80;;;2.17;;
77332;SDS011;66408;51.326;12.070;2023-07-20T01:55:18;4.78;;;2.28;;
77332;SDS011;66408;51.326;12.070;2023-07-20T01:57:46;3.88;;;2.58;;
77332;SDS011;66408;51.326;12.070;2023-07-20T02:00:15;7.70;;;2.90;;
77332;SDS011;66408;51.326;12.070;2023-07-20T02:02:46;3.33;;;2.67;;
77332;SDS011;66408;51.326;12.070;2023-07-20T02:05:20;7.40;;;2.58;;
77332;SDS011;66408;51.326;12.070;2023-07-20T02:07:49;5.80;;;2.58;;
77332;SDS011;66408;51.326;12.070;2023-07-20T02:12:45;4.65;;;2.58;;
77332;SDS011;66408;51.326;12.070;2023-07-20T02:15:14;4.38;;;2.80;;
77332;SDS011;66408;51.326;12.070;2023-07-20T02:17:46;6.30;;;3.03;;
77332;SDS011;66408;51.326;12.070;2023-07-20T02:20:15;5.63;;;2.80;;
77332;SDS011;66408;51.326;12.070;2023-07-20T02:22:43;4.45;;;3.35;;
77332;SDS011;66408;51.326;12.070;2023-07-20T02:25:11;4.80;;;3.47;;
77332;SDS011;66408;51.326;12.070;2023-07-20T02:27:43;5.30;;;3.15;;
77332;SDS011;66408;51.326;12.070;2023-07-20T02:30:11;6.68;;;3.28;;
77332;SDS011;66408;51.326;12.070;2023-07-20T02:32:40;6.13;;;3.45;;
77332;SDS011;66408;51.326;12.070;2023-07-20T02:35:12;4.50;;;3.22;;
77332;SDS011;66408;51.326;12.070;2023-07-20T02:37:40;4.90;;;3.60;;
77332;SDS011;66408;51.326;12.070;2023-07-20T02:40:09;5.78;;;3.22;;
77332;SDS011;66408;51.326;12.070;2023-07-20T02:42:38;6.70;;;3.78;;
77332;SDS011;66408;51.326;12.070;2023-07-20T02:45:06;6.28;;;3.40;;
77332;SDS011;66408;51.326;12.070;2023-07-20T02:47:35;7.15;;;3.50;;
77332;SDS011;66408;51.326;12.070;2023-07-20T02:50:06;6.05;;;3.40;;
77332;SDS011;66408;51.326;12.070;2023-07-20T02:52:35;6.50;;;2.78;;
77332;SDS011;66408;51.326;12.070;2023-07-20T02:55:04;4.93;;;2.90;;
77332;SDS011;66408;51.326;12.070;2023-07-20T02:57:32;5.68;;;2.97;;
77332;SDS011;66408;51.326;12.070;2023-07-20T03:00:02;4.10;;;2.70;;
77332;SDS011;66408;51.326;12.070;2023-07-20T03:02:33;4.03;;;2.60;;
77332;SDS011;66408;51.326;12.070;2023-07-20T03:05:04;4.25;;;2.60;;
77332;SDS011;66408;51.326;12.070;2023-07-20T03:07:34;5.78;;;2.58;;
77332;SDS011;66408;51.326;12.070;2023-07-20T03:10:03;4.25;;;2.60;;
77332;SDS011;66408;51.326;12.070;2023-07-20T03:12:31;3.70;;;2.40;;
77332;SDS011;66408;51.326;12.070;2023-07-20T03:15:02;4.45;;;2.22;;
77332;SDS011;66408;51.326;12.070;2023-07-20T03:17:30;4.90;;;2.28;;
77332;SDS011;66408;51.326;12.070;2023-07-20T03:19:59;3.70;;;2.30;;
77332;SDS011;66408;51.326;12.070;2023-07-20T03:22:30;4.80;;;2.78;;
77332;SDS011;66408;51.326;12.070;2023-07-20T03:25:02;5.68;;;2.58;;
77332;SDS011;66408;51.326;12.070;2023-07-20T03:27:31;5.15;;;2.60;;
77332;SDS011;66408;51.326;12.070;2023-07-20T03:29:59;6.63;;;3.25;;
77332;SDS011;66408;51.326;12.070;2023-07-20T03:32:28;6.78;;;2.25;;
77332;SDS011;66408;51.326;12.070;2023-07-20T03:34:56;9.68;;;3.05;;
77332;SDS011;66408;51.326;12.070;2023-07-20T03:37:25;5.82;;;3.97;;
77332;SDS011;66408;51.326;12.070;2023-07-20T03:39:53;7.38;;;2.67;;
77332;SDS011;66408;51.326;12.070;2023-07-20T03:42:21;3.65;;;2.55;;
77332;SDS011;66408;51.326;12.070;2023-07-20T03:44:50;8.55;;;2.65;;
77332;SDS011;66408;51.326;12.070;2023-07-20T03:47:18;2.33;;;1.90;;
77332;SDS011;66408;51.326;12.070;2023-07-20T03:49:47;4.55;;;3.03;;
77332;SDS011;66408;51.326;12.070;2023-07-20T03:52:15;5.68;;;2.65;;
77332;SDS011;66408;51.326;12.070;2023-07-20T03:54:43;4.63;;;2.60;;
77332;SDS011;66408;51.326;12.070;2023-07-20T03:57:11;3.85;;;2.50;;
77332;SDS011;66408;51.326;12.070;2023-07-20T03:59:40;4.88;;;2.30;;
77332;SDS011;66408;51.326;12.070;2023-07-20T04:02:15;5.38;;;2.83;;
77332;SDS011;66408;51.326;12.070;2023-07-20T04:04:47;4.80;;;2.90;;
77332;SDS011;66408;51.326;12.070;2023-07-20T04:07:15;5.38;;;2.58;;
77332;SDS011;66408;51.326;12.070;2023-07-20T04:09:44;4.35;;;2.70;;
77332;SDS011;66408;51.326;12.070;2023-07-20T04:12:12;4.15;;;2.60;;
77332;SDS011;66408;51.326;12.070;2023-07-20T04:14:40;4.82;;;2.50;;
77332;SDS011;66408;51.326;12.070;2023-07-20T04:17:09;5.53;;;3.00;;
77332;SDS011;66408;51.326;12.070;2023-07-20T04:19:40;6.32;;;3.25;;
77332;SDS011;66408;51.326;12.070;2023-07-20T04:22:10;4.07;;;2.70;;
77332;SDS011;66408;51.326;12.070;2023-07-20T04:24:45;3.72;;;2.97;;
77332;SDS011;66408;51.326;12.070;2023-07-20T04:27:13;5.10;;;2.92;;
77332;SDS011;66408;51.326;12.070;2023-07-20T04:29:41;5.55;;;2.90;;
77332;SDS011;66408;51.326;12.070;2023-07-20T04:32:10;5.65;;;3.67;;
77332;SDS011;66408;51.326;12.070;2023-07-20T04:34:38;5.88;;;2.83;;
77332;SDS011;66408;51.326;12.070;2023-07-20T04:37:06;6.65;;;3.90;;
77332;SDS011;66408;51.326;12.070;2023-07-20T04:42:03;5.65;;;3.25;;
77332;SDS011;66408;51.326;12.070;2023-07-20T04:44:31;4.38;;;3.60;;
77332;SDS011;66408;51.326;12.070;2023-07-20T04:47:00;7.05;;;3.85;;
77332;SDS011;66408;51.326;12.070;2023-07-20T04:49:28;6.68;;;4.30;;
77332;SDS011;66408;51.326;12.070;2023-07-20T04:51:56;5.18;;;3.90;;
77332;SDS011;66408;51.326;12.070;2023-07-20T04:54:24;5.50;;;4.40;;
77332;SDS011;66408;51.326;12.070;2023-07-20T04:56:54;7.57;;;4.55;;
77332;SDS011;66408;51.326;12.070;2023-07-20T04:59:25;5.78;;;4.65;;
77332;SDS011;66408;51.326;12.070;2023-07-20T05:01:53;9.00;;;5.38;;
77332;SDS011;66408;51.326;12.070;2023-07-20T05:04:21;6.88;;;5.28;;
77332;SDS011;66408;51.326;12.070;2023-07-20T05:06:48;7.88;;;5.25;;
77332;SDS011;66408;51.326;12.070;2023-07-20T05:09:15;6.78;;;4.72;;
77332;SDS011;66408;51.326;12.070;2023-07-20T05:11:42;6.05;;;5.40;;
77332;SDS011;66408;51.326;12.070;2023-07-20T05:14:11;9.85;;;5.15;;
77332;SDS011;66408;51.326;12.070;2023-07-20T05:16:38;7.50;;;4.82;;
77332;SDS011;66408;51.326;12.070;2023-07-20T05:19:05;10.40;;;4.57;;
77332;SDS011;66408;51.326;12.070;2023-07-20T05:21:32;8.07;;;4.72;;
77332;SDS011;66408;51.326;12.070;2023-07-20T05:23:59;7.22;;;3.90;;
77332;SDS011;66408;51.326;12.070;2023-07-20T05:26:25;8.52;;;3.60;;
77332;SDS011;66408;51.326;12.070;2023-07-20T05:28:52;8.05;;;4.22;;
77332;SDS011;66408;51.326;12.070;2023-07-20T05:31:19;5.20;;;3.58;;
77332;SDS011;66408;51.326;12.070;2023-07-20T05:33:46;9.68;;;3.67;;
77332;SDS011;66408;51.326;12.070;2023-07-20T05:36:13;7.35;;;3.33;;
77332;SDS011;66408;51.326;12.070;2023-07-20T05:38:49;7.22;;;3.33;;
77332;SDS011;66408;51.326;12.070;2023-07-20T05:41:16;5.38;;;2.90;;
77332;SDS011;66408;51.326;12.070;2023-07-20T05:43:43;6.45;;;3.00;;
77332;SDS011;66408;51.326;12.070;2023-07-20T05:46:18;5.30;;;3.25;;
77332;SDS011;66408;51.326;12.070;2023-07-20T05:48:46;5.47;;;2.90;;
77332;SDS011;66408;51.326;12.070;2023-07-20T05:51:13;7.45;;;3.25;;
77332;SDS011;66408;51.326;12.070;2023-07-20T05:53:40;5.22;;;3.08;;
77332;SDS011;66408;51.326;12.070;2023-07-20T05:56:06;9.25;;;3.10;;
77332;SDS011;66408;51.326;12.070;2023-07-20T05:58:36;4.95;;;3.28;;
77332;SDS011;66408;51.326;12.070;2023-07-20T06:01:03;4.18;;;2.60;;
77332;SDS011;66408;51.326;12.070;2023-07-20T06:03:32;6.10;;;2.80;;
77332;SDS011;66408;51.326;12.070;2023-07-20T06:06:00;3.90;;;2.80;;
77332;SDS011;66408;51.326;12.070;2023-07-20T06:08:31;5.05;;;2.90;;
77332;SDS011;66408;51.326;12.070;2023-07-20T06:10:58;3.90;;;2.70;;
77332;SDS011;66408;51.326;12.070;2023-07-20T06:13:26;4.57;;;3.25;;
77332;SDS011;66408;51.326;12.070;2023-07-20T06:15:53;4.60;;;3.05;;
77332;SDS011;66408;51.326;12.070;2023-07-20T06:18:19;4.07;;;3.40;;
77332;SDS011;66408;51.326;12.070;2023-07-20T06:20:51;3.90;;;3.10;;
77332;SDS011;66408;51.326;12.070;2023-07-20T06:23:18;7.82;;;3.38;;
77332;SDS011;66408;51.326;12.070;2023-07-20T06:25:46;5.93;;;3.08;;
77332;SDS011;66408;51.326;12.070;2023-07-20T06:28:13;5.75;;;3.28;;
77332;SDS011;66408;51.326;12.070;2023-07-20T06:30:40;5.40;;;3.83;;
77332;SDS011;66408;51.326;12.070;2023-07-20T06:33:07;6.60;;;3.25;;
77332;SDS011;66408;51.326;12.070;2023-07-20T06:35:34;9.55;;;3.55;;
77332;SDS011;66408;51.326;12.070;2023-07-20T06:38:02;6.22;;;3.60;;
77332;SDS011;66408;51.326;12.070;2023-07-20T06:40:33;6.72;;;3.08;;
77332;SDS011;66408;51.326;12.070;2023-07-20T06:43:00;5.80;;;3.88;;
77332;SDS011;66408;51.326;12.070;2023-07-20T06:45:29;7.18;;;3.53;;
77332;SDS011;66408;51.326;12.070;2023-07-20T06:47:56;4.13;;;3.15;;
77332;SDS011;66408;51.326;12.070;2023-07-20T06:50:23;5.15;;;3.10;;
77332;SDS011;66408;51.326;12.070;2023-07-20T06:52:53;6.47;;;3.60;;
77332;SDS011;66408;51.326;12.070;2023-07-20T06:57:49;5.35;;;3.83;;
77332;SDS011;66408;51.326;12.070;2023-07-20T07:00:16;4.28;;;3.22;;
77332;SDS011;66408;51.326;12.070;2023-07-20T07:02:43;5.25;;;3.70;;
77332;SDS011;66408;51.326;12.070;2023-07-20T07:05:12;4.60;;;3.42;;
77332;SDS011;66408;51.326;12.070;2023-07-20T07:07:45;6.03;;;3.40;;
77332;SDS011;66408;51.326;12.070;2023-07-20T07:10:12;5.65;;;4.05;;
77332;SDS011;66408;51.326;12.070;2023-07-20T07:12:39;5.85;;;3.72;;
77332;SDS011;66408;51.326;12.070;2023-07-20T07:15:06;6.57;;;3.90;;
77332;SDS011;66408;51.326;12.070;2023-07-20T07:17:33;6.40;;;4.40;;
77332;SDS011;66408;51.326;12.070;2023-07-20T07:20:00;7.10;;;4.30;;
77332;SDS011;66408;51.326;12.070;2023-07-20T07:22:27;6.03;;;3.88;;
77332;SDS011;66408;51.326;12.070;2023-07-20T07:24:53;4.60;;;3.70;;
77332;SDS011;66408;51.326;12.070;2023-07-20T07:27:20;5.43;;;4.13;;
77332;SDS011;66408;51.326;12.070;2023-07-20T07:29:46;7.32;;;3.83;;
77332;SDS011;66408;51.326;12.070;2023-07-20T07:32:14;6.60;;;3.65;;
77332;SDS011;66408;51.326;12.070;2023-07-20T07:34:43;5.22;;;3.15;;
77332;SDS011;66408;51.326;12.070;2023-07-20T07:37:13;6.82;;;3.85;;
77332;SDS011;66408;51.326;12.070;2023-07-20T07:39:40;5.75;;;3.78;;
77332;SDS011;66408;51.326;12.070;2023-07-20T07:42:06;5.05;;;3.85;;
77332;SDS011;66408;51.326;12.070;2023-07-20T07:44:33;5.38;;;3.60;;
77332;SDS011;66408;51.326;12.070;2023-07-20T07:46:59;5.20;;;3.30;;
77332;SDS011;66408;51.326;12.070;2023-07-20T07:49:26;4.03;;;3.20;;
77332;SDS011;66408;51.326;12.070;2023-07-20T07:51:54;6.28;;;3.58;;
77332;SDS011;66408;51.326;12.070;2023-07-20T07:54:20;4.00;;;2.70;;
77332;SDS011;66408;51.326;12.070;2023-07-20T07:56:47;4.75;;;2.75;;
77332;SDS011;66408;51.326;12.070;2023-07-20T07:59:13;5.70;;;3.05;;
77332;SDS011;66408;51.326;12.070;2023-07-20T08:01:40;3.85;;;3.15;;
77332;SDS011;66408;51.326;12.070;2023-07-20T08:04:07;3.65;;;2.70;;
77332;SDS011;66408;51.326;12.070;2023-07-20T08:06:34;3.22;;;2.47;;
77332;SDS011;66408;51.326;12.070;2023-07-20T08:09:01;3.13;;;2.30;;
77332;SDS011;66408;51.326;12.070;2023-07-20T08:11:28;3.80;;;2.20;;
77332;SDS011;66408;51.326;12.070;2023-07-20T08:13:56;4.28;;;2.17;;
77332;SDS011;66408;51.326;12.070;2023-07-20T08:16:23;3.72;;;2.20;;
77332;SDS011;66408;51.326;12.070;2023-07-20T08:18:50;3.97;;;2.92;;
77332;SDS011;66408;51.326;12.070;2023-07-20T08:21:18;5.80;;;2.92;;
77332;SDS011;66408;51.326;12.070;2023-07-20T08:23:45;5.32;;;3.45;;
77332;SDS011;66408;51.326;12.070;2023-07-20T08:26:11;6.32;;;3.15;;
77332;SDS011;66408;51.326;12.070;2023-07-20T08:28:38;3.90;;;3.28;;
77332;SDS011;66408;51.326;12.070;2023-07-20T08:31:05;9.10;;;3.53;;
77332;SDS011;66408;51.326;12.070;2023-07-20T08:33:33;3.03;;;2.33;;
77332;SDS011;66408;51.326;12.070;2023-07-20T08:36:01;4.05;;;2.70;;
77332;SDS011;66408;51.326;12.070;2023-07-20T08:38:28;4.38;;;3.05;;
77332;SDS011;66408;51.326;12.070;2023-07-20T08:40:54;4.43;;;2.90;;
77332;SDS011;66408;51.326;12.070;2023-07-20T08:43:22;5.78;;;2.80;;
77332;SDS011;66408;51.326;12.070;2023-07-20T08:45:53;4.90;;;3.33;;
77332;SDS011;66408;51.326;12.070;2023-07-20T08:48:21;3.88;;;3.03;;
77332;SDS011;66408;51.326;12.070;2023-07-20T08:50:51;3.47;;;2.50;;
77332;SDS011;66408;51.326;12.070;2023-07-20T08:53:22;3.08;;;2.50;;
77332;SDS011;66408;51.326;12.070;2023-07-20T08:55:50;2.83;;;2.15;;
77332;SDS011;66408;51.326;12.070;2023-07-20T08:58:18;3.30;;;2.15;;
77332;SDS011;66408;51.326;12.070;2023-07-20T09:00:46;3.80;;;2.13;;
77332;SDS011;66408;51.326;12.070;2023-07-20T09:03:16;5.40;;;2.75;;
77332;SDS011;66408;51.326;12.070;2023-07-20T09:05:44;3.38;;;2.35;;
77332;SDS011;66408;51.326;12.070;2023-07-20T09:08:10;2.70;;;1.63;;
77332;SDS011;66408;51.326;12.070;2023-07-20T09:10:37;1.75;;;1.33;;
77332;SDS011;66408;51.326;12.070;2023-07-20T09:13:03;2.67;;;1.40;;
77332;SDS011;66408;51.326;12.070;2023-07-20T09:15:30;2.33;;;1.05;;
77332;SDS011;66408;51.326;12.070;2023-07-20T09:17:58;2.03;;;1.30;;
77332;SDS011;66408;51.326;12.070;2023-07-20T09:20:31;2.30;;;1.45;;
77332;SDS011;66408;51.326;12.070;2023-07-20T09:23:00;2.67;;;1.63;;
77332;SDS011;66408;51.326;12.070;2023-07-20T09:25:32;5.25;;;1.80;;
77332;SDS011;66408;51.326;12.070;2023-07-20T09:28:02;2.97;;;2.00;;
77332;SDS011;66408;51.326;12.070;2023-07-20T09:30:31;2.83;;;2.17;;
77332;SDS011;66408;51.326;12.070;2023-07-20T09:32:58;4.28;;;2.58;;
77332;SDS011;66408;51.326;12.070;2023-07-20T09:35:25;6.90;;;3.20;;
77332;SDS011;66408;51.326;12.070;2023-07-20T09:38:06;5.28;;;3.42;;
77332;SDS011;66408;51.326;12.070;2023-07-20T09:40:38;4.38;;;3.20;;
77332;SDS011;66408;51.326;12.070;2023-07-20T09:43:08;5.28;;;3.15;;
77332;SDS011;66408;51.326;12.070;2023-07-20T09:45:39;3.13;;;2.78;;
77332;SDS011;66408;51.326;12.070;2023-07-20T09:48:10;7.68;;;3.08;;
77332;SDS011;66408;51.326;12.070;2023-07-20T09:50:41;4.38;;;3.10;;
77332;SDS011;66408;51.326;12.070;2023-07-20T09:53:11;5.65;;;3.47;;
77332;SDS011;66408;51.326;12.070;2023-07-20T09:55:41;5.55;;;3.33;;
77332;SDS011;66408;51.326;12.070;2023-07-20T09:58:09;3.83;;;3.10;;
77332;SDS011;66408;51.326;12.070;2023-07-20T10:00:37;3.13;;;2.20;;
77332;SDS011;66408;51.326;12.070;2023-07-20T10:03:07;3.75;;;2.20;;
77332;SDS011;66408;51.326;12.070;2023-07-20T10:05:38;6.63;;;2.65;;
77332;SDS011;66408;51.326;12.070;2023-07-20T10:08:11;3.22;;;2.13;;
77332;SDS011;66408;51.326;12.070;2023-07-20T10:10:41;4.45;;;2.60;;
77332;SDS011;66408;51.326;12.070;2023-07-20T10:13:25;3.35;;;2.30;;
77332;SDS011;66408;51.326;12.070;2023-07-20T10:15:54;5.15;;;2.50;;
77332;SDS011;66408;51.326;12.070;2023-07-20T10:18:49;5.55;;;2.90;;
77332;SDS011;66408;51.326;12.070;2023-07-20T10:21:19;3.63;;;2.78;;
77332;SDS011;66408;51.326;12.070;2023-07-20T10:23:52;6.70;;;3.10;;
77332;SDS011;66408;51.326;12.070;2023-07-20T10:26:18;6.28;;;3.20;;
77332;SDS011;66408;51.326;12.070;2023-07-20T10:28:45;4.07;;;3.22;;
77332;SDS011;66408;51.326;12.070;2023-07-20T10:31:12;6.80;;;3.80;;
77332;SDS011;66408;51.326;12.070;2023-07-20T10:33:41;3.80;;;2.88;;
77332;SDS011;66408;51.326;12.070;2023-07-20T10:36:09;4.85;;;3.50;;
77332;SDS011;66408;51.326;12.070;2023-07-20T10:41:16;4.60;;;3.40;;
77332;SDS011;66408;51.326;12.070;2023-07-20T10:43:46;3.55;;;2.90;;
77332;SDS011;66408;51.326;12.070;2023-07-20T10:46:13;3.35;;;3.05;;
77332;SDS011;66408;51.326;12.070;2023-07-20T10:49:00;3.55;;;2.75;;
77332;SDS011;66408;51.326;12.070;2023-07-20T10:51:41;3.80;;;2.75;;
77332;SDS011;66408;51.326;12.070;2023-07-20T10:56:42;4.07;;;3.22;;
77332;SDS011;66408;51.326;12.070;2023-07-20T11:01:55;3.90;;;3.40;;
77332;SDS011;66408;51.326;12.070;2023-07-20T11:07:06;4.68;;;2.90;;
77332;SDS011;66408;51.326;12.070;2023-07-20T11:09:33;4.32;;;3.28;;
77332;SDS011;66408;51.326;12.070;2023-07-20T11:12:11;4.88;;;3.17;;
77332;SDS011;66408;51.326;12.070;2023-07-20T11:14:55;2.92;;;2.63;;
77332;SDS011;66408;51.326;12.070;2023-07-20T11:17:29;3.83;;;2.92;;
77332;SDS011;66408;51.326;12.070;2023-07-20T11:19:57;3.42;;;2.30;;
77332;SDS011;66408;51.326;12.070;2023-07-20T11:22:32;4.40;;;2.53;;
77332;SDS011;66408;51.326;12.070;2023-07-20T11:25:00;3.22;;;2.33;;
77332;SDS011;66408;51.326;12.070;2023-07-20T11:27:26;4.45;;;2.10;;
77332;SDS011;66408;51.326;12.070;2023-07-20T11:29:54;3.58;;;2.72;;
77332;SDS011;66408;51.326;12.070;2023-07-20T11:32:21;3.13;;;2.63;;
77332;SDS011;66408;51.326;12.070;2023-07-20T11:34:49;3.58;;;2.60;;
77332;SDS011;66408;51.326;12.070;2023-07-20T11:39:47;2.90;;;2.53;;
77332;SDS011;66408;51.326;12.070;2023-07-20T11:42:14;3.78;;;2.60;;
77332;SDS011;66408;51.326;12.070;2023-07-20T11:45:05;3.38;;;3.08;;
77332;SDS011;66408;51.326;12.070;2023-07-20T11:47:32;4.22;;;2.67;;
77332;SDS011;66408;51.326;12.070;2023-07-20T11:50:03;4.82;;;3.00;;
77332;SDS011;66408;51.326;12.070;2023-07-20T11:52:30;3.50;;;3.05;;
77332;SDS011;66408;51.326;12.070;2023-07-20T11:54:57;3.13;;;2.60;;
77332;SDS011;66408;51.326;12.070;2023-07-20T11:57:24;3.38;;;2.95;;
77332;SDS011;66408;51.326;12.070;2023-07-20T12:02:29;3.75;;;3.10;;
77332;SDS011;66408;51.326;12.070;2023-07-20T12:04:56;3.25;;;2.85;;
77332;SDS011;66408;51.326;12.070;2023-07-20T12:07:25;5.07;;;2.15;;
77332;SDS011;66408;51.326;12.070;2023-07-20T12:10:06;2.72;;;1.80;;
77332;SDS011;66408;51.326;12.070;2023-07-20T12:12:34;2.33;;;1.80;;
77332;SDS011;66408;51.326;12.070;2023-07-20T12:15:16;2.80;;;1.77;;
77332;SDS011;66408;51.326;12.070;2023-07-20T12:17:50;2.15;;;1.95;;
77332;SDS011;66408;51.326;12.070;2023-07-20T12:20:27;2.28;;;1.88;;
77332;SDS011;66408;51.326;12.070;2023-07-20T12:28:14;2.55;;;2.22;;
77332;SDS011;66408;51.326;12.070;2023-07-20T12:30:43;2.58;;;2.17;;
77332;SDS011;66408;51.326;12.070;2023-07-20T12:33:11;3.58;;;2.50;;
77332;SDS011;66408;51.326;12.070;2023-07-20T12:35:40;2.70;;;2.13;;
77332;SDS011;66408;51.326;12.070;2023-07-20T12:38:07;3.83;;;2.55;;
77332;SDS011;66408;51.326;12.070;2023-07-20T12:40:34;3.15;;;2.50;;
77332;SDS011;66408;51.326;12.070;2023-07-20T12:43:02;2.60;;;2.28;;
77332;SDS011;66408;51.326;12.070;2023-07-20T12:45:30;2.90;;;2.63;;
77332;SDS011;66408;51.326;12.070;2023-07-20T12:47:56;2.90;;;2.60;;
77332;SDS011;66408;51.326;12.070;2023-07-20T12:50:23;3.38;;;2.70;;
77332;SDS011;66408;51.326;12.070;2023-07-20T12:52:50;3.25;;;2.95;;
77332;SDS011;66408;51.326;12.070;2023-07-20T12:55:16;3.00;;;2.70;;
77332;SDS011;66408;51.326;12.070;2023-07-20T12:57:43;3.50;;;3.20;;
77332;SDS011;66408;51.326;12.070;2023-07-20T13:00:10;3.05;;;2.75;;
77332;SDS011;66408;51.326;12.070;2023-07-20T13:02:38;3.28;;;2.95;;
77332;SDS011;66408;51.326;12.070;2023-07-20T13:05:05;2.80;;;2.50;;
77332;SDS011;66408;51.326;12.070;2023-07-20T13:07:32;3.42;;;3.10;;
77332;SDS011;66408;51.326;12.070;2023-07-20T13:10:09;4.28;;;3.35;;
77332;SDS011;66408;51.326;12.070;2023-07-20T13:12:37;3.45;;;3.15;;
77332;SDS011;66408;51.326;12.070;2023-07-20T13:15:05;4.00;;;3.60;;
77332;SDS011;66408;51.326;12.070;2023-07-20T13:20:03;3.50;;;3.13;;
77332;SDS011;66408;51.326;12.070;2023-07-20T13:22:32;4.03;;;3.60;;
77332;SDS011;66408;51.326;12.070;2023-07-20T13:25:00;3.20;;;2.50;;
77332;SDS011;66408;51.326;12.070;2023-07-20T13:27:27;2.50;;;2.30;;
77332;SDS011;66408;51.326;12.070;2023-07-20T13:29:53;2.67;;;2.47;;
77332;SDS011;66408;51.326;12.070;2023-07-20T13:32:20;2.40;;;2.20;;
77332;SDS011;66408;51.326;12.070;2023-07-20T13:34:46;2.40;;;2.08;;
77332;SDS011;66408;51.326;12.070;2023-07-20T13:37:14;2.50;;;2.20;;
77332;SDS011;66408;51.326;12.070;2023-07-20T13:39:42;3.25;;;2.70;;
77332;SDS011;66408;51.326;12.070;2023-07-20T13:42:12;2.53;;;1.90;;
77332;SDS011;66408;51.326;12.070;2023-07-20T13:44:39;2.42;;;2.00;;
77332;SDS011;66408;51.326;12.070;2023-07-20T13:47:05;2.10;;;1.90;;
77332;SDS011;66408;51.326;12.070;2023-07-20T13:49:35;3.33;;;2.38;;
77332;SDS011;66408;51.326;12.070;2023-07-20T13:52:13;2.00;;;1.80;;
77332;SDS011;66408;51.326;12.070;2023-07-20T13:54:42;2.10;;;1.90;;
77332;SDS011;66408;51.326;12.070;2023-07-20T13:57:11;2.10;;;1.90;;
77332;SDS011;66408;51.326;12.070;2023-07-20T13:59:40;2.58;;;2.10;;
77332;SDS011;66408;51.326;12.070;2023-07-20T14:02:07;2.10;;;1.90;;
77332;SDS011;66408;51.326;12.070;2023-07-20T14:04:37;2.63;;;1.70;;
77332;SDS011;66408;51.326;12.070;2023-07-20T14:07:04;2.72;;;1.77;;
77332;SDS011;66408;51.326;12.070;2023-07-20T14:09:31;2.35;;;1.52;;
77332;SDS011;66408;51.326;12.070;2023-07-20T14:11:57;2.10;;;1.90;;
77332;SDS011;66408;51.326;12.070;2023-07-20T14:14:28;2.33;;;1.70;;
77332;SDS011;66408;51.326;12.070;2023-07-20T14:16:54;2.88;;;2.08;;
77332;SDS011;66408;51.326;12.070;2023-07-20T14:19:22;1.70;;;1.40;;
77332;SDS011;66408;51.326;12.070;2023-07-20T14:21:49;1.83;;;1.45;;
77332;SDS011;66408;51.326;12.070;2023-07-20T14:24:15;3.45;;;1.30;;
77332;SDS011;66408;51.326;12.070;2023-07-20T14:26:44;2.00;;;1.60;;
77332;SDS011;66408;51.326;12.070;2023-07-20T14:29:12;3.08;;;1.40;;
77332;SDS011;66408;51.326;12.070;2023-07-20T14:31:39;1.73;;;1.35;;
77332;SDS011;66408;51.326;12.070;2023-07-20T14:34:05;2.35;;;1.38;;
77332;SDS011;66408;51.326;12.070;2023-07-20T14:36:32;3.33;;;1.42;;
77332;SDS011;66408;51.326;12.070;2023-07-20T14:39:00;1.77;;;1.40;;
77332;SDS011;66408;51.326;12.070;2023-07-20T14:41:27;2.15;;;1.40;;
77332;SDS011;66408;51.326;12.070;2023-07-20T14:43:53;2.20;;;1.55;;
77332;SDS011;66408;51.326;12.070;2023-07-20T14:46:20;1.92;;;1.50;;
77332;SDS011;66408;51.326;12.070;2023-07-20T14:48:47;1.90;;;1.30;;
77332;SDS011;66408;51.326;12.070;2023-07-20T14:51:14;1.60;;;1.20;;
77332;SDS011;66408;51.326;12.070;2023-07-20T14:53:41;2.08;;;1.10;;
77332;SDS011;66408;51.326;12.070;2023-07-20T14:56:07;1.23;;;0.93;;
77332;SDS011;66408;51.326;12.070;2023-07-20T14:58:34;1.55;;;0.90;;
77332;SDS011;66408;51.326;12.070;2023-07-20T15:01:01;2.20;;;0.90;;
77332;SDS011;66408;51.326;12.070;2023-07-20T15:03:29;2.65;;;1.10;;
77332;SDS011;66408;51.326;12.070;2023-07-20T15:05:57;1.48;;;0.93;;
77332;SDS011;66408;51.326;12.070;2023-07-20T15:08:24;1.23;;;1.00;;
77332;SDS011;66408;51.326;12.070;2023-07-20T15:10:50;1.60;;;1.13;;
77332;SDS011;66408;51.326;12.070;2023-07-20T15:13:17;1.30;;;0.90;;
77332;SDS011;66408;51.326;12.070;2023-07-20T15:15:43;1.60;;;0.90;;
77332;SDS011;66408;51.326;12.070;2023-07-20T15:18:10;1.20;;;0.75;;
77332;SDS011;66408;51.326;12.070;2023-07-20T15:20:37;1.27;;;1.10;;
77332;SDS011;66408;51.326;12.070;2023-07-20T15:23:03;1.25;;;0.90;;
77332;SDS011;66408;51.326;12.070;2023-07-20T15:25:30;1.10;;;1.00;;
77332;SDS011;66408;51.326;12.070;2023-07-20T15:27:57;1.15;;;0.90;;
77332;SDS011;66408;51.326;12.070;2023-07-20T15:30:23;1.35;;;0.82;;